Terminal Aerodrome Forecast
Issued by NWS

Home | Current Version | Previous Version | Graphics & Text | Print | Product List | Glossary On
Versions: 1 2 3 4 5 6 7 8 9 10 11 12 13 14 15 16 17 18
000
FTUS42 KMHX 282321
TAFOAJ
TAF
KOAJ 282321Z 0100/0124 05012G15KT P6SM BKN045 BKN200
     FM010400 03007KT P6SM SCT015 BKN040
     FM010800 04005KT 3SM BR BKN015 OVC025
     FM011400 06007KT P6SM BKN025 OVC040
     FM011800 34005KT 3SM -RA BR OVC010
      AMD LTD TO CLD VIS AND WIND=

USA.gov is the U.S. government's official web portal to all federal, state and local government web resources and services.